Time;durP1;ratioP1;P1;durP2;ratioP2;P2;SDS_P1;SDS_P2;PMS_P1;PMS_P2;Temp;Humidity;BMP_temperature;BMP_pressure;BME280_temperature;BME280_humidity;BME280_pressure;Samples;Min_cycle;Max_cycle;Signal;HPM_P1;HPM_P2
2021/09/28 00:01:19;;;;;;;23.58;12.57;;;;;;;-144.51;100.00;69251.94;5094764;28;20040;-67
2021/09/28 00:04:04;;;;;;;;;;;;;;;-144.51;100.00;69251.94;5095249;28;20039;-67
2021/09/28 00:06:50;;;;;;;24.80;12.32;;;;;;;-144.51;100.00;69251.94;5094619;28;19912;-67
2021/09/28 00:09:34;;;;;;;28.20;14.32;;;;;;;-144.51;100.00;69251.94;5093838;28;20039;-66
2021/09/28 00:12:20;;;;;;;33.35;17.33;;;;;;;-144.51;100.00;69251.94;5096321;28;20032;-66
2021/09/28 00:15:06;;;;;;;21.80;14.20;;;;;;;-144.51;100.00;69251.94;5095114;28;20047;-65
2021/09/28 00:17:51;;;;;;;26.83;16.15;;;;;;;-144.51;100.00;69251.94;5095091;28;20511;-66
2021/09/28 00:20:38;;;;;;;42.08;19.30;;;;;;;-144.51;100.00;69251.94;5105981;28;20048;-66
2021/09/28 00:23:23;;;;;;;38.45;19.38;;;;;;;-144.51;100.00;69251.94;5115225;28;20044;-66
2021/09/28 00:26:08;;;;;;;37.38;19.73;;;;;;;-144.51;100.00;69251.94;5115253;28;20039;-66
2021/09/28 00:28:54;;;;;;;36.05;21.25;;;;;;;-144.51;100.00;69251.94;5115491;28;20491;-66
2021/09/28 00:31:39;;;;;;;38.80;19.67;;;;;;;-144.51;100.00;69251.94;5113788;28;20035;-66
2021/09/28 00:34:24;;;;;;;41.67;20.60;;;;;;;-144.51;100.00;69251.94;5115334;28;20467;-66
2021/09/28 00:37:09;;;;;;;34.97;17.40;;;;;;;-144.51;100.00;69251.94;5117623;28;20422;-66
2021/09/28 00:39:53;;;;;;;;;;;;;;;-144.51;100.00;69251.94;5112210;28;20407;-66
2021/09/28 00:42:38;;;;;;;30.40;17.10;;;;;;;-144.51;100.00;69251.94;5113716;28;19919;-66
2021/09/28 00:45:23;;;;;;;40.95;22.30;;;;;;;-144.51;100.00;69251.94;5114540;28;20040;-65
2021/09/28 00:48:08;;;;;;;37.47;17.52;;;;;;;-144.51;100.00;69251.94;5114951;28;20047;-65
2021/09/28 00:50:53;;;;;;;30.38;16.77;;;;;;;-144.51;100.00;69251.94;5113080;28;20035;-65
2021/09/28 00:53:40;;;;;;;31.15;16.77;;;;;;;-144.51;100.00;69251.94;5114811;28;20043;-66
2021/09/28 00:56:25;;;;;;;24.73;15.60;;;;;;;-144.51;100.00;69251.94;5113389;28;20047;-66
2021/09/28 00:59:11;;;;;;;27.48;16.55;;;;;;;-144.51;100.00;69251.94;5113263;28;20040;-66
2021/09/28 01:01:56;;;;;;;35.70;19.88;;;;;;;-144.51;100.00;69251.94;5101317;28;20040;-66
2021/09/28 01:04:42;;;;;;;33.42;19.05;;;;;;;-144.51;100.00;69251.94;5113714;28;20035;-66
2021/09/28 01:07:26;;;;;;;36.05;17.20;;;;;;;-144.51;100.00;69251.94;5114688;28;20491;-66
2021/09/28 01:10:12;;;;;;;32.78;16.95;;;;;;;-144.51;100.00;69251.94;5112790;28;20410;-66
2021/09/28 01:12:57;;;;;;;28.17;17.42;;;;;;;-144.51;100.00;69251.94;5107725;28;20044;-66
2021/09/28 01:16:00;;;;;;;32.30;16.60;;;;;;;-144.51;100.00;69251.94;5117953;28;20418;-66
2021/09/28 01:18:45;;;;;;;29.40;17.15;;;;;;;-144.51;100.00;69251.94;5114269;28;20047;-66
2021/09/28 01:21:29;;;;;;;27.00;17.30;;;;;;;-144.51;100.00;69251.94;5112006;28;20035;-66
2021/09/28 01:24:15;;;;;;;30.55;19.02;;;;;;;-144.51;100.00;69251.94;5114032;28;20039;-66
2021/09/28 01:27:00;;;;;;;34.53;16.90;;;;;;;-144.51;100.00;69251.94;5116117;28;20043;-66
2021/09/28 01:29:45;;;;;;;27.85;17.52;;;;;;;-144.51;100.00;69251.94;5114164;28;20040;-66
2021/09/28 01:32:30;;;;;;;33.63;18.38;;;;;;;-144.51;100.00;69251.94;5112211;28;20035;-67
2021/09/28 01:35:15;;;;;;;28.58;16.30;;;;;;;-144.51;100.00;69251.94;5093932;28;20400;-66
2021/09/28 01:38:00;;;;;;;36.80;17.50;;;;;;;-144.51;100.00;69251.94;5078987;28;20040;-66
2021/09/28 01:40:46;;;;;;;26.80;18.08;;;;;;;-144.51;100.00;69251.94;5093062;28;20040;-66
2021/09/28 01:43:31;;;;;;;29.73;15.57;;;;;;;-144.51;100.00;69251.94;5110232;28;20483;-66
2021/09/28 01:46:16;;;;;;;34.72;16.58;;;;;;;-144.51;100.00;69251.94;5113771;28;20043;-67
2021/09/28 01:49:02;;;;;;;30.48;16.58;;;;;;;-144.51;100.00;69251.94;5114211;28;20043;-66
2021/09/28 01:51:47;;;;;;;26.92;15.55;;;;;;;-144.51;100.00;69251.94;5112323;28;20036;-67
2021/09/28 01:54:32;;;;;;;27.20;15.57;;;;;;;-144.51;100.00;69251.94;5093296;28;20603;-67
2021/09/28 01:57:17;;;;;;;21.83;14.07;;;;;;;-144.51;100.00;69251.94;5092780;28;20040;-67
2021/09/28 02:00:04;;;;;;;29.98;14.93;;;;;;;-144.51;100.00;69251.94;5093055;28;20245;-67
2021/09/28 02:02:57;;;;;;;26.23;14.18;;;;;;;-144.51;100.00;69251.94;5098466;28;20048;-66
2021/09/28 02:05:43;;;;;;;24.77;14.38;;;;;;;-144.51;100.00;69251.94;5113203;28;20494;-66
2021/09/28 02:08:27;;;;;;;24.63;14.73;;;;;;;-144.51;100.00;69251.94;5114206;28;20043;-66
2021/09/28 02:11:12;;;;;;;23.63;14.68;;;;;;;-144.51;100.00;69251.94;5118034;28;20031;-66
2021/09/28 02:13:59;;;;;;;26.48;15.20;;;;;;;-144.51;100.00;69251.94;5112115;28;20082;-66
2021/09/28 02:16:45;;;;;;;21.38;14.80;;;;;;;-144.51;100.00;69251.94;5113776;28;20499;-68
2021/09/28 02:19:30;;;;;;;26.83;15.65;;;;;;;-144.51;100.00;69251.94;5092760;28;20044;-65
2021/09/28 02:22:15;;;;;;;318.88;63.83;;;;;;;-144.51;100.00;69251.94;5096889;28;20040;-67
2021/09/28 02:24:59;;;;;;;296.15;65.13;;;;;;;-144.51;100.00;69251.94;5109760;28;20047;-66
2021/09/28 02:27:45;;;;;;;51.40;20.73;;;;;;;-144.51;100.00;69251.94;5110989;28;20035;-66
2021/09/28 02:30:33;;;;;;;31.65;15.75;;;;;;;-144.51;100.00;69251.94;5117825;28;20048;-66
2021/09/28 02:33:18;;;;;;;29.60;15.20;;;;;;;-144.51;100.00;69251.94;5114062;28;20043;-66
2021/09/28 02:36:03;;;;;;;35.65;16.02;;;;;;;-144.51;100.00;69251.94;5111047;28;20047;-66
2021/09/28 02:38:51;;;;;;;29.10;15.13;;;;;;;-144.51;100.00;69251.94;5115538;28;20040;-66
2021/09/28 02:41:37;;;;;;;29.00;14.00;;;;;;;-144.51;100.00;69251.94;5115201;28;20047;-66
2021/09/28 02:44:22;;;;;;;28.88;14.00;;;;;;;-144.51;100.00;69251.94;5107648;28;20036;-66
2021/09/28 02:47:07;;;;;;;25.23;14.48;;;;;;;-144.51;100.00;69251.94;5097402;28;20039;-66
2021/09/28 02:49:52;;;;;;;22.92;13.63;;;;;;;-144.51;100.00;69251.94;5096820;28;20040;-66
2021/09/28 02:52:37;;;;;;;22.33;13.50;;;;;;;-144.51;100.00;69251.94;5094594;28;20040;-66
2021/09/28 02:55:22;;;;;;;25.27;13.45;;;;;;;-144.51;100.00;69251.94;5104124;28;20044;-66
2021/09/28 02:58:07;;;;;;;22.30;13.95;;;;;;;-144.51;100.00;69251.94;5117402;28;20040;-66
2021/09/28 03:00:52;;;;;;;26.30;14.77;;;;;;;-144.51;100.00;69251.94;5114666;28;20040;-66
2021/09/28 03:03:38;;;;;;;24.70;12.80;;;;;;;-144.51;100.00;69251.94;5109377;28;20102;-66
2021/09/28 03:06:23;;;;;;;23.00;12.50;;;;;;;-144.51;100.00;69251.94;5100230;28;20052;-66
2021/09/28 03:09:08;;;;;;;23.15;12.07;;;;;;;-144.51;100.00;69251.94;5094002;28;20407;-66
2021/09/28 03:11:53;;;;;;;25.85;14.75;;;;;;;-144.51;100.00;69251.94;5112861;28;20036;-66
2021/09/28 03:14:38;;;;;;;21.33;14.13;;;;;;;-144.51;100.00;69251.94;5103121;28;20040;-66
2021/09/28 03:17:25;;;;;;;28.63;15.27;;;;;;;-144.51;100.00;69251.94;5102700;28;20044;-65
2021/09/28 03:20:10;;;;;;;29.00;14.13;;;;;;;-144.51;100.00;69251.94;5107578;28;20479;-66
2021/09/28 03:22:55;;;;;;;24.38;14.30;;;;;;;-144.51;100.00;69251.94;5095997;28;20483;-66
2021/09/28 03:25:41;;;;;;;20.65;13.05;;;;;;;-144.51;100.00;69251.94;5096220;28;20044;-65
2021/09/28 03:28:25;;;;;;;;;;;;;;;-144.51;100.00;69251.94;5094581;28;20032;-65
2021/09/28 03:31:11;;;;;;;24.60;12.60;;;;;;;-144.51;100.00;69251.94;5097040;28;19912;-66
2021/09/28 03:33:56;;;;;;;19.48;12.15;;;;;;;-144.51;100.00;69251.94;5112960;28;20032;-66
2021/09/28 03:36:41;;;;;;;18.88;10.77;;;;;;;-144.51;100.00;69251.94;5113560;28;20047;-65
2021/09/28 03:39:26;;;;;;;23.75;11.60;;;;;;;-144.51;100.00;69251.94;5111414;28;20043;-66
2021/09/28 03:42:11;;;;;;;;;;;;;;;-144.51;100.00;69251.94;5093963;28;20040;-65
2021/09/28 03:44:55;;;;;;;21.75;11.60;;;;;;;-144.51;100.00;69251.94;5104509;28;19911;-66
2021/09/28 03:47:40;;;;;;;22.80;11.30;;;;;;;-144.51;100.00;69251.94;5098695;28;20044;-65
2021/09/28 03:50:27;;;;;;;18.33;11.55;;;;;;;-144.51;100.00;69251.94;5109979;28;20039;-65
2021/09/28 03:53:12;;;;;;;18.10;10.25;;;;;;;-144.51;100.00;69251.94;5121695;28;20040;-65
2021/09/28 03:55:57;;;;;;;17.45;10.90;;;;;;;-144.51;100.00;69251.94;5109064;28;20040;-65
2021/09/28 03:58:41;;;;;;;;;;;;;;;-144.51;100.00;69251.94;5097624;28;20048;-65
2021/09/28 04:01:26;;;;;;;21.88;10.35;;;;;;;-144.51;100.00;69251.94;5101846;27;19916;-65
2021/09/28 04:04:11;;;;;;;18.77;10.52;;;;;;;-144.51;100.00;69251.94;5117616;28;20035;-65
2021/09/28 04:06:56;;;;;;;15.45;9.93;;;;;;;-144.51;100.00;69251.94;5097444;28;20043;-65
2021/09/28 04:09:41;;;;;;;19.88;11.68;;;;;;;-144.51;100.00;69251.94;5095305;28;20044;-65
2021/09/28 04:12:26;;;;;;;19.83;12.27;;;;;;;-144.51;100.00;69251.94;5112986;28;20491;-65
2021/09/28 04:15:11;;;;;;;21.88;12.50;;;;;;;-144.51;100.00;69251.94;5118189;28;20039;-65
2021/09/28 04:17:56;;;;;;;23.00;12.40;;;;;;;-144.51;100.00;69251.94;5111677;28;20044;-65
2021/09/28 04:20:43;;;;;;;24.95;12.88;;;;;;;-144.51;100.00;69251.94;5096750;28;20051;-65
2021/09/28 04:23:28;;;;;;;26.30;11.18;;;;;;;-144.51;100.00;69251.94;5101294;28;20039;-66
2021/09/28 04:26:13;;;;;;;20.70;11.50;;;;;;;-144.51;100.00;69251.94;5105547;28;20043;-68
2021/09/28 04:28:58;;;;;;;23.33;12.90;;;;;;;-144.51;100.00;69251.94;5103687;28;20039;-65
2021/09/28 04:31:42;;;;;;;;;;;;;;;-144.51;100.00;69251.94;5104026;28;20040;-65
2021/09/28 04:34:27;;;;;;;16.15;11.32;;;;;;;-144.51;100.00;69251.94;5117706;28;19912;-65
2021/09/28 04:37:12;;;;;;;28.60;12.68;;;;;;;-144.51;100.00;69251.94;5098950;28;20035;-66
2021/09/28 04:39:57;;;;;;;17.08;10.85;;;;;;;-144.51;100.00;69251.94;5101621;28;20039;-66
2021/09/28 04:42:42;;;;;;;24.38;11.77;;;;;;;-144.51;100.00;69251.94;5096392;28;20036;-66
2021/09/28 04:45:27;;;;;;;17.27;10.57;;;;;;;-144.51;100.00;69251.94;5095016;28;20035;-65
2021/09/28 04:48:12;;;;;;;23.63;11.85;;;;;;;-144.51;100.00;69251.94;5100512;28;20439;-67
2021/09/28 04:50:57;;;;;;;15.45;9.93;;;;;;;-144.51;100.00;69251.94;5106174;28;20043;-65
2021/09/28 04:53:42;;;;;;;16.55;10.70;;;;;;;-144.51;100.00;69251.94;5095240;28;20040;-65
2021/09/28 04:56:27;;;;;;;20.23;11.75;;;;;;;-144.51;100.00;69251.94;5108527;28;20035;-65
2021/09/28 04:59:12;;;;;;;25.75;11.60;;;;;;;-144.51;100.00;69251.94;5110057;27;20035;-64
2021/09/28 05:01:57;;;;;;;24.45;12.52;;;;;;;-144.51;100.00;69251.94;5095491;28;20040;-65
2021/09/28 05:04:42;;;;;;;25.35;12.68;;;;;;;-144.51;100.00;69251.94;5106904;28;20039;-65
2021/09/28 05:07:27;;;;;;;23.08;12.63;;;;;;;-144.51;100.00;69251.94;5111353;28;20043;-65
2021/09/28 05:10:12;;;;;;;17.17;11.85;;;;;;;-144.51;100.00;69251.94;5104616;28;20032;-66
2021/09/28 05:12:57;;;;;;;22.05;12.55;;;;;;;-144.51;100.00;69251.94;5103510;28;20044;-66
2021/09/28 05:15:42;;;;;;;21.70;11.93;;;;;;;-144.51;100.00;69251.94;5105058;28;20069;-64
2021/09/28 05:18:27;;;;;;;32.95;11.77;;;;;;;-144.51;100.00;69251.94;5099830;28;20043;-68
2021/09/28 05:21:13;;;;;;;;;;;;;;;-144.51;100.00;69251.94;5102197;27;20044;-66
2021/09/28 05:23:57;;;;;;;19.08;10.80;;;;;;;-144.51;100.00;69251.94;5116465;28;19916;-66
2021/09/28 05:26:42;;;;;;;;;;;;;;;-144.51;100.00;69251.94;5098224;28;20044;-65
2021/09/28 05:29:27;;;;;;;22.98;10.10;;;;;;;-144.51;100.00;69251.94;5093986;28;19912;-66
2021/09/28 05:32:12;;;;;;;23.33;12.77;;;;;;;-144.51;100.00;69251.94;5116676;28;20043;-66
2021/09/28 05:34:57;;;;;;;16.42;9.35;;;;;;;-144.51;100.00;69251.94;5096210;28;20040;-66
2021/09/28 05:37:41;;;;;;;17.63;10.15;;;;;;;-144.51;100.00;69251.94;5102350;28;20051;-66
2021/09/28 05:40:26;;;;;;;27.55;10.40;;;;;;;-144.51;100.00;69251.94;5098100;28;20217;-66
2021/09/28 05:43:11;;;;;;;33.78;11.45;;;;;;;-144.51;100.00;69251.94;5095845;28;20032;-66
2021/09/28 05:45:56;;;;;;;;;;;;;;;-144.51;100.00;69251.94;5095255;28;20047;-66
2021/09/28 05:48:40;;;;;;;18.70;8.95;;;;;;;-144.51;100.00;69251.94;5096137;28;19916;-66
2021/09/28 05:51:28;;;;;;;16.50;9.73;;;;;;;-144.51;100.00;69251.94;5093758;28;20107;-65
2021/09/28 05:54:17;;;;;;;19.75;9.57;;;;;;;-144.51;100.00;69251.94;5097932;28;20040;-66
2021/09/28 05:57:02;;;;;;;20.58;9.20;;;;;;;-144.51;100.00;69251.94;5095688;28;20044;-66
2021/09/28 05:59:48;;;;;;;20.85;10.30;;;;;;;-144.51;100.00;69251.94;5093662;28;20043;-66
2021/09/28 06:02:33;;;;;;;16.83;10.15;;;;;;;-144.51;100.00;69251.94;5097560;28;20040;-66
2021/09/28 06:05:20;;;;;;;17.52;9.80;;;;;;;-144.51;100.00;69251.94;5096050;28;20048;-65
2021/09/28 06:08:05;;;;;;;14.00;10.10;;;;;;;-144.51;100.00;69251.94;5093389;28;20040;-66
2021/09/28 06:10:50;;;;;;;15.40;9.82;;;;;;;-144.51;100.00;69251.94;5092994;28;20044;-66
2021/09/28 06:13:35;;;;;;;14.45;9.48;;;;;;;-144.51;100.00;69251.94;5095722;28;20403;-65
2021/09/28 06:16:20;;;;;;;17.70;9.90;;;;;;;-144.51;100.00;69251.94;5093898;28;20048;-66
2021/09/28 06:19:05;;;;;;;18.33;9.52;;;;;;;-144.51;100.00;69251.94;5094496;28;20044;-66
2021/09/28 06:21:50;;;;;;;15.48;9.05;;;;;;;-144.51;100.00;69251.94;5095785;28;20048;-66
2021/09/28 06:24:35;;;;;;;19.48;9.10;;;;;;;-144.51;100.00;69251.94;5093883;28;20040;-66
2021/09/28 06:27:22;;;;;;;13.95;8.15;;;;;;;-144.51;100.00;69251.94;5097702;28;20039;-66
2021/09/28 06:30:09;;;;;;;13.93;9.10;;;;;;;-144.51;100.00;69251.94;5096257;28;20044;-66
2021/09/28 06:32:53;;;;;;;16.83;9.82;;;;;;;-144.51;100.00;69251.94;5094144;28;20043;-66
2021/09/28 06:35:39;;;;;;;21.08;11.20;;;;;;;-144.51;100.00;69251.94;5097536;28;20044;-66
2021/09/28 06:38:24;;;;;;;18.48;11.15;;;;;;;-144.51;100.00;69251.94;5096063;28;20044;-66
2021/09/28 06:41:11;;;;;;;24.88;10.77;;;;;;;-144.51;100.00;69251.94;5093783;28;20047;-66
2021/09/28 06:43:56;;;;;;;16.38;8.85;;;;;;;-144.51;100.00;69251.94;5097728;28;20044;-66
2021/09/28 06:46:41;;;;;;;16.75;9.00;;;;;;;-144.51;100.00;69251.94;5095722;28;20484;-66
2021/09/28 06:49:26;;;;;;;17.90;10.18;;;;;;;-144.51;100.00;69251.94;5093233;28;20040;-66
2021/09/28 06:52:11;;;;;;;16.50;10.10;;;;;;;-144.51;100.00;69251.94;5096841;28;20031;-65
2021/09/28 06:54:57;;;;;;;19.83;11.25;;;;;;;-144.51;100.00;69251.94;5095141;28;20044;-66
2021/09/28 06:57:42;;;;;;;26.55;12.13;;;;;;;-144.51;100.00;69251.94;5092980;28;20036;-66
2021/09/28 07:00:27;;;;;;;19.92;8.93;;;;;;;-144.51;100.00;69251.94;5096965;28;20040;-65
2021/09/28 07:03:12;;;;;;;14.77;9.52;;;;;;;-144.51;100.00;69251.94;5095034;28;20475;-65
2021/09/28 07:05:57;;;;;;;15.95;9.70;;;;;;;-144.51;100.00;69251.94;5093201;28;20035;-66
2021/09/28 07:08:42;;;;;;;25.38;12.60;;;;;;;-144.51;100.00;69251.94;5095009;28;20044;-65
2021/09/28 07:11:27;;;;;;;21.85;12.10;;;;;;;-144.51;100.00;69251.94;5095172;28;20407;-65
2021/09/28 07:14:14;;;;;;;24.73;12.80;;;;;;;-144.51;100.00;69251.94;5093161;28;20403;-66
2021/09/28 07:16:59;;;;;;;19.40;12.23;;;;;;;-144.51;100.00;69251.94;5097216;28;20044;-66
2021/09/28 07:19:44;;;;;;;17.15;11.23;;;;;;;-144.51;100.00;69251.94;5096432;28;20040;-66
2021/09/28 07:22:30;;;;;;;17.02;10.48;;;;;;;-144.51;100.00;69251.94;5102781;28;20048;-66
2021/09/28 07:25:15;;;;;;;22.15;11.98;;;;;;;-144.51;100.00;69251.94;5101907;28;20044;-66
2021/09/28 07:28:00;;;;;;;18.60;13.10;;;;;;;-144.51;100.00;69251.94;5100820;28;20048;-66
2021/09/28 07:30:46;;;;;;;21.92;13.57;;;;;;;-144.51;100.00;69251.94;5097070;28;20044;-67
2021/09/28 07:33:31;;;;;;;;;;;;;;;-144.51;100.00;69251.94;5101602;28;20040;-66
2021/09/28 07:36:16;;;;;;;17.80;9.55;;;;;;;-144.51;100.00;69251.94;5099252;28;19912;-66
2021/09/28 07:39:01;;;;;;;22.85;10.75;;;;;;;-144.51;100.00;69251.94;5096956;28;20419;-66
2021/09/28 07:41:46;;;;;;;14.48;9.45;;;;;;;-144.51;100.00;69251.94;5101331;28;20036;-66
2021/09/28 07:44:33;;;;;;;14.82;9.50;;;;;;;-144.51;100.00;69251.94;5099492;28;20044;-66
2021/09/28 07:47:18;;;;;;;19.70;10.65;;;;;;;-144.51;100.00;69251.94;5097197;28;20400;-66
2021/09/28 07:50:04;;;;;;;18.60;8.95;;;;;;;-144.51;100.00;69251.94;5099750;28;20047;-66
2021/09/28 07:52:49;;;;;;;18.38;11.25;;;;;;;-144.51;100.00;69251.94;5098069;28;20044;-66
2021/09/28 07:55:35;;;;;;;19.17;10.85;;;;;;;-144.51;100.00;69251.94;5096159;28;20047;-66
2021/09/28 07:58:20;;;;;;;17.65;10.85;;;;;;;-144.51;100.00;69251.94;5099273;28;20044;-67
2021/09/28 08:01:05;;;;;;;21.92;11.68;;;;;;;-144.51;100.00;69251.94;5098414;28;20040;-66
2021/09/28 08:03:50;;;;;;;19.38;11.80;;;;;;;-144.51;100.00;69251.94;5095920;28;20044;-66
2021/09/28 08:06:35;;;;;;;18.75;10.90;;;;;;;-144.51;100.00;69251.94;5100522;28;20044;-66
2021/09/28 08:09:21;;;;;;;19.38;10.77;;;;;;;-144.51;100.00;69251.94;5096212;28;20044;-66
2021/09/28 08:12:07;;;;;;;21.90;11.30;;;;;;;-144.51;100.00;69251.94;5096195;28;20044;-66
2021/09/28 08:14:53;;;;;;;22.05;12.75;;;;;;;-144.51;100.00;69251.94;5100026;28;20044;-66
2021/09/28 08:17:38;;;;;;;28.50;17.42;;;;;;;-144.51;100.00;69251.94;5098139;28;20407;-66
2021/09/28 08:20:23;;;;;;;18.58;12.15;;;;;;;-144.51;100.00;69251.94;5096264;28;20044;-66
2021/09/28 08:23:08;;;;;;;25.42;15.90;;;;;;;-144.51;100.00;69251.94;5099970;28;20044;-66
2021/09/28 08:31:46;;;;;;;35.45;18.05;;;;;;;-144.51;100.00;69251.94;5098416;28;20039;-66
2021/09/28 08:34:31;;;;;;;29.67;17.20;;;;;;;-144.51;100.00;69251.94;5096968;28;20067;-66
2021/09/28 08:37:16;;;;;;;19.08;12.90;;;;;;;-144.51;100.00;69251.94;5095220;28;20048;-66
2021/09/28 08:40:03;;;;;;;24.63;13.73;;;;;;;-144.51;100.00;69251.94;5099614;28;20044;-66
2021/09/28 08:42:47;;;;;;;31.00;15.40;;;;;;;-144.51;100.00;69251.94;5097146;28;20036;-66
2021/09/28 08:45:32;;;;;;;27.63;13.57;;;;;;;-144.51;100.00;69251.94;5095204;28;20048;-67
2021/09/28 08:48:17;;;;;;;25.92;13.30;;;;;;;-144.51;100.00;69251.94;5098593;28;20043;-66
2021/09/28 08:51:02;;;;;;;19.10;12.43;;;;;;;-144.51;100.00;69251.94;5096132;28;20044;-66
2021/09/28 08:53:50;;;;;;;29.25;15.55;;;;;;;-144.51;100.00;69251.94;5100074;28;20040;-66
2021/09/28 08:56:34;;;;;;;21.45;13.00;;;;;;;-144.51;100.00;69251.94;5098145;28;20044;-66
2021/09/28 08:59:20;;;;;;;24.55;15.50;;;;;;;-144.51;100.00;69251.94;5095380;28;20048;-67
2021/09/28 09:02:08;;;;;;;20.77;12.02;;;;;;;-144.51;100.00;69251.94;5099811;28;20036;-67
2021/09/28 09:05:03;;;;;;;28.00;16.15;;;;;;;-144.51;100.00;69251.94;5098136;28;20048;-67
2021/09/28 09:07:59;;;;;;;;;;;;;;;-144.51;100.00;69251.94;5095969;28;20044;-66
2021/09/28 09:10:43;;;;;;;28.27;13.75;;;;;;;-144.51;100.00;69251.94;5094348;28;19912;-66
2021/09/28 09:13:50;;;;;;;18.55;12.68;;;;;;;-144.51;100.00;69251.94;5097297;28;20044;-66
2021/09/28 09:16:35;;;;;;;24.33;13.98;;;;;;;-144.51;100.00;69251.94;5094237;28;20044;-66
2021/09/28 09:19:27;;;;;;;20.95;13.88;;;;;;;-144.51;100.00;69251.94;5094970;28;20048;-66
2021/09/28 09:22:23;;;;;;;23.35;15.23;;;;;;;-144.51;100.00;69251.94;5093649;28;20036;-66
2021/09/28 09:25:19;;;;;;;24.08;15.35;;;;;;;-144.51;100.00;69251.94;5099591;28;20415;-66
2021/09/28 09:28:31;;;;;;;26.63;14.88;;;;;;;-144.51;100.00;69251.94;5096796;28;20044;-66
2021/09/28 09:31:22;;;;;;;26.40;15.05;;;;;;;-144.51;100.00;69251.94;5099394;28;20396;-66
2021/09/28 09:34:15;;;;;;;21.30;14.50;;;;;;;-144.51;100.00;69251.94;5097211;28;20028;-66
2021/09/28 09:37:06;;;;;;;24.17;14.90;;;;;;;-144.51;100.00;69251.94;5094936;28;20044;-66
2021/09/28 09:39:55;;;;;;;19.95;13.23;;;;;;;-144.51;100.00;69251.94;5098370;28;20040;-66
2021/09/28 09:42:53;;;;;;;25.45;14.30;;;;;;;-144.51;100.00;69251.94;5096157;28;20048;-66
2021/09/28 09:45:38;;;;;;;23.42;14.77;;;;;;;-144.51;100.00;69251.94;5094001;28;20032;-67
2021/09/28 09:48:24;;;;;;;24.65;14.25;;;;;;;-144.51;100.00;69251.94;5096940;28;20043;-66
2021/09/28 09:51:14;;;;;;;23.45;14.38;;;;;;;-144.51;100.00;69251.94;5099014;28;20043;-66
2021/09/28 09:54:00;;;;;;;20.95;14.18;;;;;;;-144.51;100.00;69251.94;5109408;28;20035;-66
2021/09/28 09:56:53;;;;;;;25.60;14.50;;;;;;;-144.51;100.00;69251.94;5104928;28;20039;-67
2021/09/28 09:59:40;;;;;;;22.50;13.68;;;;;;;-144.51;100.00;69251.94;5098963;28;20043;-66
2021/09/28 10:02:25;;;;;;;23.15;13.20;;;;;;;-144.51;100.00;69251.94;5098083;28;20044;-66
2021/09/28 10:05:10;;;;;;;13.77;10.68;;;;;;;-144.51;100.00;69251.94;5096148;28;20376;-66
2021/09/28 10:07:56;;;;;;;22.38;12.30;;;;;;;-144.51;100.00;69251.94;5098876;28;20040;-66
2021/09/28 10:10:43;;;;;;;17.52;11.20;;;;;;;-144.51;100.00;69251.94;5101007;28;20043;-66
2021/09/28 10:13:52;;;;;;;21.17;12.10;;;;;;;-144.51;100.00;69251.94;5092799;28;20055;-66
2021/09/28 10:16:38;;;;;;;20.95;13.43;;;;;;;-144.51;100.00;69251.94;5097785;28;20036;-66
2021/09/28 10:19:26;;;;;;;29.98;14.43;;;;;;;-144.51;100.00;69251.94;5094287;28;20450;-66
2021/09/28 10:22:33;;;;;;;20.08;12.93;;;;;;;-144.51;100.00;69251.94;5109549;28;20044;-65
2021/09/28 10:25:23;;;;;;;19.65;13.93;;;;;;;-144.51;100.00;69251.94;5111418;28;20051;-66
2021/09/28 10:28:08;;;;;;;20.33;13.45;;;;;;;-144.51;100.00;69251.94;5114154;28;20422;-66
2021/09/28 10:30:52;;;;;;;27.27;15.13;;;;;;;-144.51;100.00;69251.94;5115613;28;20043;-66
2021/09/28 10:33:39;;;;;;;25.30;13.65;;;;;;;-144.51;100.00;69251.94;5111353;28;20387;-66
2021/09/28 10:36:26;;;;;;;24.15;14.65;;;;;;;-144.51;100.00;69251.94;5113719;28;20036;-66
2021/09/28 10:39:11;;;;;;;32.85;15.27;;;;;;;-144.51;100.00;69251.94;5109548;28;20043;-67
2021/09/28 10:42:00;;;;;;;23.00;14.00;;;;;;;-144.51;100.00;69251.94;5112137;28;20039;-66
2021/09/28 10:44:47;;;;;;;19.55;13.50;;;;;;;-144.51;100.00;69251.94;5111710;28;20043;-66
2021/09/28 10:47:52;;;;;;;15.52;11.23;;;;;;;-144.51;100.00;69251.94;5114540;28;20039;-66
2021/09/28 10:50:38;;;;;;;20.45;11.88;;;;;;;-144.51;100.00;69251.94;5112290;28;20040;-66
2021/09/28 10:53:23;;;;;;;17.77;11.73;;;;;;;-144.51;100.00;69251.94;5117524;28;20381;-66
2021/09/28 10:56:14;;;;;;;19.45;11.77;;;;;;;-144.51;100.00;69251.94;5119451;28;20040;-66
2021/09/28 10:59:02;;;;;;;18.63;10.98;;;;;;;-144.51;100.00;69251.94;5116825;28;20031;-65
2021/09/28 11:02:10;;;;;;;17.20;11.77;;;;;;;-144.51;100.00;69251.94;5121720;28;20039;-65
2021/09/28 11:05:30;;;;;;;17.67;11.23;;;;;;;-144.51;100.00;69251.94;5106436;28;20051;-66
2021/09/28 11:08:22;;;;;;;18.52;13.75;;;;;;;-144.51;100.00;69251.94;5110109;28;20039;-66
2021/09/28 11:11:08;;;;;;;21.60;12.05;;;;;;;-144.51;100.00;69251.94;5111805;28;20040;-66
2021/09/28 11:14:00;;;;;;;17.75;12.57;;;;;;;-144.51;100.00;69251.94;5113801;28;20492;-66
2021/09/28 11:16:53;;;;;;;17.60;12.30;;;;;;;-144.51;100.00;69251.94;5114057;28;20031;-66
2021/09/28 11:19:38;;;;;;;16.58;10.95;;;;;;;-144.51;100.00;69251.94;5115469;28;20039;-66
2021/09/28 11:22:23;;;;;;;19.92;10.73;;;;;;;-144.51;100.00;69251.94;5116841;27;20036;-66
2021/09/28 11:25:13;;;;;;;13.57;8.57;;;;;;;-144.51;100.00;69251.94;5117329;28;20036;-66
2021/09/28 11:28:04;;;;;;;18.83;10.90;;;;;;;-144.51;100.00;69251.94;5116960;28;20128;-66
2021/09/28 11:30:58;;;;;;;15.27;10.50;;;;;;;-144.51;100.00;69251.94;5121039;28;20043;-66
2021/09/28 11:33:46;;;;;;;18.23;12.32;;;;;;;-144.51;100.00;69251.94;5116045;27;20032;-66
2021/09/28 11:36:41;;;;;;;17.75;10.98;;;;;;;-144.51;100.00;69251.94;5113671;28;20048;-66
2021/09/28 11:39:27;;;;;;;15.63;10.63;;;;;;;-144.51;100.00;69251.94;5110421;28;20035;-66
2021/09/28 11:42:12;;;;;;;18.02;10.68;;;;;;;-144.51;100.00;69251.94;5116218;28;20487;-66
2021/09/28 11:44:57;;;;;;;17.15;10.23;;;;;;;-144.51;100.00;69251.94;5115271;28;20035;-65
2021/09/28 11:47:42;;;;;;;15.43;10.02;;;;;;;-144.51;100.00;69251.94;5119890;28;20490;-66
2021/09/28 11:50:27;;;;;;;17.52;11.05;;;;;;;-144.51;100.00;69251.94;5115666;28;20031;-66
2021/09/28 11:53:15;;;;;;;14.15;9.63;;;;;;;-144.51;100.00;69251.94;5114635;28;20040;-66
2021/09/28 11:55:59;;;;;;;16.35;10.15;;;;;;;-144.51;100.00;69251.94;5119394;28;20035;-66
2021/09/28 11:58:46;;;;;;;15.90;9.60;;;;;;;-144.51;100.00;69251.94;5117915;28;20039;-66
2021/09/28 12:01:31;;;;;;;11.98;9.13;;;;;;;-144.51;100.00;69251.94;5114047;28;20514;-66
2021/09/28 12:07:22;;;;;;;12.68;9.70;;;;;;;-144.51;100.00;69251.94;5112012;28;20040;-65
2021/09/28 12:10:19;;;;;;;15.57;9.48;;;;;;;-144.51;100.00;69251.94;5116268;27;20039;-65
2021/09/28 12:13:26;;;;;;;15.85;8.95;;;;;;;-144.51;100.00;69251.94;5118928;27;20399;-66
2021/09/28 12:16:15;;;;;;;12.32;8.13;;;;;;;-144.51;100.00;69251.94;5108339;28;20483;-65
2021/09/28 12:19:05;;;;;;;15.75;9.70;;;;;;;-144.51;100.00;69251.94;5117087;28;20036;-66
2021/09/28 12:21:50;;;;;;;20.00;9.05;;;;;;;-144.51;100.00;69251.94;5110733;28;20035;-66
2021/09/28 12:24:48;;;;;;;17.27;10.00;;;;;;;-144.51;100.00;69251.94;5107335;28;20043;-65
2021/09/28 12:27:34;;;;;;;235.93;46.92;;;;;;;-144.51;100.00;69251.94;5113209;28;20387;-65
2021/09/28 12:30:19;;;;;;;157.85;40.35;;;;;;;-144.51;100.00;69251.94;5115222;28;20040;-65
2021/09/28 12:33:05;;;;;;;144.25;36.30;;;;;;;-144.51;100.00;69251.94;5113708;28;20043;-65